sensor_id;sensor_type;location;lat;lon;timestamp;temperature;humidity
49503;DHT22;35409;48.776;9.204;2022-07-19T00:00:33;20.40;72.60
49503;DHT22;35409;48.776;9.204;2022-07-19T00:02:59;20.30;72.80
49503;DHT22;35409;48.776;9.204;2022-07-19T00:05:25;20.20;73.10
49503;DHT22;35409;48.776;9.204;2022-07-19T00:07:51;20.20;73.70
49503;DHT22;35409;48.776;9.204;2022-07-19T00:10:19;20.10;73.70
49503;DHT22;35409;48.776;9.204;2022-07-19T00:12:45;20.10;74.10
49503;DHT22;35409;48.776;9.204;2022-07-19T00:15:13;20.10;74.30
49503;DHT22;35409;48.776;9.204;2022-07-19T00:17:45;20.00;74.40
49503;DHT22;35409;48.776;9.204;2022-07-19T00:20:14;20.00;74.60
49503;DHT22;35409;48.776;9.204;2022-07-19T00:22:40;19.90;74.80
49503;DHT22;35409;48.776;9.204;2022-07-19T00:25:06;19.90;75.00
49503;DHT22;35409;48.776;9.204;2022-07-19T00:27:33;19.80;75.20
49503;DHT22;35409;48.776;9.204;2022-07-19T00:29:59;19.80;75.50
49503;DHT22;35409;48.776;9.204;2022-07-19T00:32:24;19.80;75.40
49503;DHT22;35409;48.776;9.204;2022-07-19T00:34:50;19.80;75.40
49503;DHT22;35409;48.776;9.204;2022-07-19T00:37:15;19.80;75.80
49503;DHT22;35409;48.776;9.204;2022-07-19T00:39:41;19.70;75.90
49503;DHT22;35409;48.776;9.204;2022-07-19T00:42:07;19.70;76.00
49503;DHT22;35409;48.776;9.204;2022-07-19T00:44:33;19.60;76.30
49503;DHT22;35409;48.776;9.204;2022-07-19T00:46:58;19.60;76.70
49503;DHT22;35409;48.776;9.204;2022-07-19T00:49:24;19.50;76.90
49503;DHT22;35409;48.776;9.204;2022-07-19T00:51:50;19.50;77.30
49503;DHT22;35409;48.776;9.204;2022-07-19T00:54:20;19.50;77.50
49503;DHT22;35409;48.776;9.204;2022-07-19T00:56:49;19.40;77.70
49503;DHT22;35409;48.776;9.204;2022-07-19T00:59:15;19.40;78.20
49503;DHT22;35409;48.776;9.204;2022-07-19T01:01:41;19.40;78.20
49503;DHT22;35409;48.776;9.204;2022-07-19T01:04:07;19.30;78.40
49503;DHT22;35409;48.776;9.204;2022-07-19T01:06:33;19.30;78.70
49503;DHT22;35409;48.776;9.204;2022-07-19T01:08:59;19.20;78.90
49503;DHT22;35409;48.776;9.204;2022-07-19T01:11:24;19.20;79.30
49503;DHT22;35409;48.776;9.204;2022-07-19T01:13:50;19.20;79.50
49503;DHT22;35409;48.776;9.204;2022-07-19T01:16:17;19.10;79.70
49503;DHT22;35409;48.776;9.204;2022-07-19T01:18:43;19.10;80.40
49503;DHT22;35409;48.776;9.204;2022-07-19T01:21:23;19.10;80.40
49503;DHT22;35409;48.776;9.204;2022-07-19T01:23:50;19.10;80.20
49503;DHT22;35409;48.776;9.204;2022-07-19T01:26:16;19.00;80.50
49503;DHT22;35409;48.776;9.204;2022-07-19T01:28:42;19.00;80.70
49503;DHT22;35409;48.776;9.204;2022-07-19T01:31:08;19.10;80.80
49503;DHT22;35409;48.776;9.204;2022-07-19T01:33:41;19.10;80.90
49503;DHT22;35409;48.776;9.204;2022-07-19T01:36:07;19.10;81.20
49503;DHT22;35409;48.776;9.204;2022-07-19T01:38:34;19.00;81.50
49503;DHT22;35409;48.776;9.204;2022-07-19T01:41:00;19.00;81.50
49503;DHT22;35409;48.776;9.204;2022-07-19T01:43:25;19.00;81.90
49503;DHT22;35409;48.776;9.204;2022-07-19T01:45:51;18.90;82.10
49503;DHT22;35409;48.776;9.204;2022-07-19T01:48:19;18.90;82.40
49503;DHT22;35409;48.776;9.204;2022-07-19T01:50:45;18.80;82.40
49503;DHT22;35409;48.776;9.204;2022-07-19T01:53:10;18.80;82.80
49503;DHT22;35409;48.776;9.204;2022-07-19T01:55:36;18.70;83.10
49503;DHT22;35409;48.776;9.204;2022-07-19T01:58:01;18.70;83.40
49503;DHT22;35409;48.776;9.204;2022-07-19T02:00:27;18.70;83.50
49503;DHT22;35409;48.776;9.204;2022-07-19T02:02:53;18.60;83.60
49503;DHT22;35409;48.776;9.204;2022-07-19T02:05:18;18.60;83.90
49503;DHT22;35409;48.776;9.204;2022-07-19T02:07:44;18.60;84.40
49503;DHT22;35409;48.776;9.204;2022-07-19T02:10:10;18.50;84.60
49503;DHT22;35409;48.776;9.204;2022-07-19T02:12:36;18.50;85.30
49503;DHT22;35409;48.776;9.204;2022-07-19T02:15:02;18.40;86.10
49503;DHT22;35409;48.776;9.204;2022-07-19T02:17:29;18.40;86.00
49503;DHT22;35409;48.776;9.204;2022-07-19T02:19:54;18.30;86.70
49503;DHT22;35409;48.776;9.204;2022-07-19T02:22:22;18.30;87.10
49503;DHT22;35409;48.776;9.204;2022-07-19T02:24:47;18.40;86.80
49503;DHT22;35409;48.776;9.204;2022-07-19T02:27:13;18.40;86.80
49503;DHT22;35409;48.776;9.204;2022-07-19T02:29:38;18.40;86.90
49503;DHT22;35409;48.776;9.204;2022-07-19T02:32:05;18.40;87.30
49503;DHT22;35409;48.776;9.204;2022-07-19T02:34:30;18.40;87.30
49503;DHT22;35409;48.776;9.204;2022-07-19T02:36:56;18.40;87.50
49503;DHT22;35409;48.776;9.204;2022-07-19T02:39:22;18.40;87.80
49503;DHT22;35409;48.776;9.204;2022-07-19T02:41:47;18.40;87.50
49503;DHT22;35409;48.776;9.204;2022-07-19T02:44:13;18.40;87.30
49503;DHT22;35409;48.776;9.204;2022-07-19T02:46:38;18.40;87.20
49503;DHT22;35409;48.776;9.204;2022-07-19T02:49:04;18.40;87.30
49503;DHT22;35409;48.776;9.204;2022-07-19T02:51:30;18.40;87.20
49503;DHT22;35409;48.776;9.204;2022-07-19T02:53:55;18.40;87.70
49503;DHT22;35409;48.776;9.204;2022-07-19T02:56:21;18.30;87.80
49503;DHT22;35409;48.776;9.204;2022-07-19T02:58:46;18.30;88.00
49503;DHT22;35409;48.776;9.204;2022-07-19T03:01:12;18.20;88.40
49503;DHT22;35409;48.776;9.204;2022-07-19T03:03:38;18.20;88.90
49503;DHT22;35409;48.776;9.204;2022-07-19T03:06:10;18.10;89.50
49503;DHT22;35409;48.776;9.204;2022-07-19T03:08:37;18.10;90.00
49503;DHT22;35409;48.776;9.204;2022-07-19T03:11:03;18.00;90.20
49503;DHT22;35409;48.776;9.204;2022-07-19T03:13:28;18.00;90.50
49503;DHT22;35409;48.776;9.204;2022-07-19T03:15:55;18.00;90.70
49503;DHT22;35409;48.776;9.204;2022-07-19T03:18:21;18.00;90.90
49503;DHT22;35409;48.776;9.204;2022-07-19T03:20:46;17.90;91.00
49503;DHT22;35409;48.776;9.204;2022-07-19T03:23:12;17.90;91.10
49503;DHT22;35409;48.776;9.204;2022-07-19T03:25:38;17.80;91.20
49503;DHT22;35409;48.776;9.204;2022-07-19T03:28:04;17.80;91.50
49503;DHT22;35409;48.776;9.204;2022-07-19T03:30:30;17.80;91.70
49503;DHT22;35409;48.776;9.204;2022-07-19T03:32:57;17.70;92.10
49503;DHT22;35409;48.776;9.204;2022-07-19T03:35:23;17.70;92.40
49503;DHT22;35409;48.776;9.204;2022-07-19T03:37:48;17.70;92.60
49503;DHT22;35409;48.776;9.204;2022-07-19T03:40:14;17.70;92.80
49503;DHT22;35409;48.776;9.204;2022-07-19T03:42:40;17.70;93.00
49503;DHT22;35409;48.776;9.204;2022-07-19T03:45:05;17.60;93.30
49503;DHT22;35409;48.776;9.204;2022-07-19T03:47:31;17.60;93.60
49503;DHT22;35409;48.776;9.204;2022-07-19T03:49:57;17.60;93.80
49503;DHT22;35409;48.776;9.204;2022-07-19T03:52:23;17.60;94.30
49503;DHT22;35409;48.776;9.204;2022-07-19T03:54:49;17.60;93.90
49503;DHT22;35409;48.776;9.204;2022-07-19T03:57:15;17.50;93.80
49503;DHT22;35409;48.776;9.204;2022-07-19T03:59:41;17.50;93.90
49503;DHT22;35409;48.776;9.204;2022-07-19T04:02:07;17.50;94.20
49503;DHT22;35409;48.776;9.204;2022-07-19T04:04:32;17.50;94.30
49503;DHT22;35409;48.776;9.204;2022-07-19T04:06:58;17.50;94.40
49503;DHT22;35409;48.776;9.204;2022-07-19T04:09:24;17.50;94.70
49503;DHT22;35409;48.776;9.204;2022-07-19T04:11:49;17.50;94.90
49503;DHT22;35409;48.776;9.204;2022-07-19T04:14:15;17.50;95.00
49503;DHT22;35409;48.776;9.204;2022-07-19T04:16:41;17.50;95.00
49503;DHT22;35409;48.776;9.204;2022-07-19T04:19:06;17.50;95.10
49503;DHT22;35409;48.776;9.204;2022-07-19T04:21:32;17.50;95.20
49503;DHT22;35409;48.776;9.204;2022-07-19T04:23:58;17.60;95.30
49503;DHT22;35409;48.776;9.204;2022-07-19T04:26:23;17.70;95.30
49503;DHT22;35409;48.776;9.204;2022-07-19T04:28:49;17.70;95.30
49503;DHT22;35409;48.776;9.204;2022-07-19T04:31:15;17.80;95.20
49503;DHT22;35409;48.776;9.204;2022-07-19T04:33:42;17.90;95.20
49503;DHT22;35409;48.776;9.204;2022-07-19T04:36:08;18.00;94.90
49503;DHT22;35409;48.776;9.204;2022-07-19T04:38:34;18.00;94.60
49503;DHT22;35409;48.776;9.204;2022-07-19T04:41:00;18.10;94.40
49503;DHT22;35409;48.776;9.204;2022-07-19T04:43:26;18.20;94.30
49503;DHT22;35409;48.776;9.204;2022-07-19T04:45:52;18.30;94.30
49503;DHT22;35409;48.776;9.204;2022-07-19T04:48:17;18.30;94.30
49503;DHT22;35409;48.776;9.204;2022-07-19T04:50:43;18.50;94.60
49503;DHT22;35409;48.776;9.204;2022-07-19T04:53:09;18.50;94.70
49503;DHT22;35409;48.776;9.204;2022-07-19T04:55:36;18.60;94.20
49503;DHT22;35409;48.776;9.204;2022-07-19T04:58:02;18.70;93.90
49503;DHT22;35409;48.776;9.204;2022-07-19T05:00:28;18.70;93.80
49503;DHT22;35409;48.776;9.204;2022-07-19T05:02:54;18.90;93.60
49503;DHT22;35409;48.776;9.204;2022-07-19T05:05:20;18.90;93.50
49503;DHT22;35409;48.776;9.204;2022-07-19T05:07:46;19.00;93.50
49503;DHT22;35409;48.776;9.204;2022-07-19T05:10:12;19.10;93.50
49503;DHT22;35409;48.776;9.204;2022-07-19T05:12:39;19.20;93.40
49503;DHT22;35409;48.776;9.204;2022-07-19T05:15:05;19.30;93.20
49503;DHT22;35409;48.776;9.204;2022-07-19T05:17:31;19.40;93.00
49503;DHT22;35409;48.776;9.204;2022-07-19T05:19:57;19.50;92.80
49503;DHT22;35409;48.776;9.204;2022-07-19T05:22:23;19.60;92.60
49503;DHT22;35409;48.776;9.204;2022-07-19T05:24:51;19.70;92.50
49503;DHT22;35409;48.776;9.204;2022-07-19T05:27:17;19.80;92.30
49503;DHT22;35409;48.776;9.204;2022-07-19T05:29:42;19.90;92.10
49503;DHT22;35409;48.776;9.204;2022-07-19T05:32:08;20.00;92.00
49503;DHT22;35409;48.776;9.204;2022-07-19T05:34:34;20.10;91.80
49503;DHT22;35409;48.776;9.204;2022-07-19T05:36:59;20.30;91.60
49503;DHT22;35409;48.776;9.204;2022-07-19T05:39:25;20.40;91.40
49503;DHT22;35409;48.776;9.204;2022-07-19T05:41:50;20.50;91.40
49503;DHT22;35409;48.776;9.204;2022-07-19T05:44:16;20.60;91.40
49503;DHT22;35409;48.776;9.204;2022-07-19T05:46:42;20.70;91.10
49503;DHT22;35409;48.776;9.204;2022-07-19T05:49:08;20.80;91.00
49503;DHT22;35409;48.776;9.204;2022-07-19T05:51:34;20.90;90.90
49503;DHT22;35409;48.776;9.204;2022-07-19T05:54:00;20.90;90.70
49503;DHT22;35409;48.776;9.204;2022-07-19T05:56:27;21.10;90.50
49503;DHT22;35409;48.776;9.204;2022-07-19T05:58:52;21.10;90.40
49503;DHT22;35409;48.776;9.204;2022-07-19T06:01:19;21.20;90.20
49503;DHT22;35409;48.776;9.204;2022-07-19T06:03:56;21.40;90.10
49503;DHT22;35409;48.776;9.204;2022-07-19T06:06:23;21.50;89.90
49503;DHT22;35409;48.776;9.204;2022-07-19T06:08:49;21.60;89.30
49503;DHT22;35409;48.776;9.204;2022-07-19T06:11:15;21.70;88.90
49503;DHT22;35409;48.776;9.204;2022-07-19T06:13:42;21.80;87.80
49503;DHT22;35409;48.776;9.204;2022-07-19T06:16:08;22.00;86.40
49503;DHT22;35409;48.776;9.204;2022-07-19T06:18:35;22.00;86.60
49503;DHT22;35409;48.776;9.204;2022-07-19T06:21:02;22.20;86.00
49503;DHT22;35409;48.776;9.204;2022-07-19T06:23:28;22.40;85.30
49503;DHT22;35409;48.776;9.204;2022-07-19T06:25:53;22.40;85.40
49503;DHT22;35409;48.776;9.204;2022-07-19T06:28:19;22.60;84.60
49503;DHT22;35409;48.776;9.204;2022-07-19T06:30:45;22.70;84.70
49503;DHT22;35409;48.776;9.204;2022-07-19T06:33:10;22.80;84.90
49503;DHT22;35409;48.776;9.204;2022-07-19T06:35:36;23.00;84.30
49503;DHT22;35409;48.776;9.204;2022-07-19T06:38:01;23.10;83.80
49503;DHT22;35409;48.776;9.204;2022-07-19T06:40:27;23.20;83.50
49503;DHT22;35409;48.776;9.204;2022-07-19T06:42:53;23.30;83.10
49503;DHT22;35409;48.776;9.204;2022-07-19T06:45:19;23.50;82.40
49503;DHT22;35409;48.776;9.204;2022-07-19T06:47:45;23.50;81.90
49503;DHT22;35409;48.776;9.204;2022-07-19T06:50:11;23.70;81.60
49503;DHT22;35409;48.776;9.204;2022-07-19T06:52:37;23.80;81.60
49503;DHT22;35409;48.776;9.204;2022-07-19T06:55:02;24.00;81.20
49503;DHT22;35409;48.776;9.204;2022-07-19T06:57:28;24.20;80.10
49503;DHT22;35409;48.776;9.204;2022-07-19T06:59:54;24.20;80.00
49503;DHT22;35409;48.776;9.204;2022-07-19T07:02:19;24.30;80.90
49503;DHT22;35409;48.776;9.204;2022-07-19T07:04:45;24.50;79.30
49503;DHT22;35409;48.776;9.204;2022-07-19T07:07:10;24.60;78.40
49503;DHT22;35409;48.776;9.204;2022-07-19T07:09:36;24.80;77.90
49503;DHT22;35409;48.776;9.204;2022-07-19T07:12:02;24.80;77.10
49503;DHT22;35409;48.776;9.204;2022-07-19T07:14:28;25.00;76.80
49503;DHT22;35409;48.776;9.204;2022-07-19T07:16:53;25.00;76.70
49503;DHT22;35409;48.776;9.204;2022-07-19T07:19:19;25.10;75.50
49503;DHT22;35409;48.776;9.204;2022-07-19T07:21:44;25.30;75.70
49503;DHT22;35409;48.776;9.204;2022-07-19T07:24:12;25.40;75.50
49503;DHT22;35409;48.776;9.204;2022-07-19T07:26:37;25.60;73.90
49503;DHT22;35409;48.776;9.204;2022-07-19T07:29:03;26.00;72.90
49503;DHT22;35409;48.776;9.204;2022-07-19T07:31:28;26.10;71.10
49503;DHT22;35409;48.776;9.204;2022-07-19T07:33:54;26.30;70.20
49503;DHT22;35409;48.776;9.204;2022-07-19T07:36:20;26.50;69.00
49503;DHT22;35409;48.776;9.204;2022-07-19T07:38:45;26.70;67.30
49503;DHT22;35409;48.776;9.204;2022-07-19T07:41:11;26.90;66.70
49503;DHT22;35409;48.776;9.204;2022-07-19T07:43:36;27.00;64.50
49503;DHT22;35409;48.776;9.204;2022-07-19T07:46:02;27.20;63.80
49503;DHT22;35409;48.776;9.204;2022-07-19T07:48:28;27.40;63.40
49503;DHT22;35409;48.776;9.204;2022-07-19T07:50:53;27.50;61.30
49503;DHT22;35409;48.776;9.204;2022-07-19T07:53:19;27.70;62.40
49503;DHT22;35409;48.776;9.204;2022-07-19T07:55:45;27.90;61.00
49503;DHT22;35409;48.776;9.204;2022-07-19T07:58:11;28.00;60.30
49503;DHT22;35409;48.776;9.204;2022-07-19T08:00:38;28.20;60.00
49503;DHT22;35409;48.776;9.204;2022-07-19T08:03:05;28.40;58.70
49503;DHT22;35409;48.776;9.204;2022-07-19T08:05:31;28.60;57.90
49503;DHT22;35409;48.776;9.204;2022-07-19T08:07:57;28.80;57.40
49503;DHT22;35409;48.776;9.204;2022-07-19T08:10:25;28.90;56.90
49503;DHT22;35409;48.776;9.204;2022-07-19T08:12:51;29.00;56.70
49503;DHT22;35409;48.776;9.204;2022-07-19T08:15:17;29.00;56.60
49503;DHT22;35409;48.776;9.204;2022-07-19T08:17:43;29.20;56.40
49503;DHT22;35409;48.776;9.204;2022-07-19T08:20:09;29.40;55.60
49503;DHT22;35409;48.776;9.204;2022-07-19T08:22:34;29.60;54.10
49503;DHT22;35409;48.776;9.204;2022-07-19T08:25:00;29.70;54.70
49503;DHT22;35409;48.776;9.204;2022-07-19T08:27:26;29.70;54.50
49503;DHT22;35409;48.776;9.204;2022-07-19T08:29:51;29.90;54.50
49503;DHT22;35409;48.776;9.204;2022-07-19T08:32:17;30.00;54.30
49503;DHT22;35409;48.776;9.204;2022-07-19T08:34:43;30.10;53.80
49503;DHT22;35409;48.776;9.204;2022-07-19T08:37:08;30.10;53.40
49503;DHT22;35409;48.776;9.204;2022-07-19T08:39:34;30.20;53.50
49503;DHT22;35409;48.776;9.204;2022-07-19T08:42:00;30.20;52.50
49503;DHT22;35409;48.776;9.204;2022-07-19T08:44:27;30.30;53.00
49503;DHT22;35409;48.776;9.204;2022-07-19T08:46:54;30.50;52.40
49503;DHT22;35409;48.776;9.204;2022-07-19T08:49:20;30.50;52.70
49503;DHT22;35409;48.776;9.204;2022-07-19T08:51:47;30.60;52.50
49503;DHT22;35409;48.776;9.204;2022-07-19T08:54:13;30.80;52.90
49503;DHT22;35409;48.776;9.204;2022-07-19T08:56:39;30.80;52.20
49503;DHT22;35409;48.776;9.204;2022-07-19T08:59:23;30.90;52.20
49503;DHT22;35409;48.776;9.204;2022-07-19T09:01:49;30.90;52.00
49503;DHT22;35409;48.776;9.204;2022-07-19T09:04:20;31.10;52.00
49503;DHT22;35409;48.776;9.204;2022-07-19T09:06:51;31.20;52.10
49503;DHT22;35409;48.776;9.204;2022-07-19T09:09:19;31.30;52.70
49503;DHT22;35409;48.776;9.204;2022-07-19T09:11:47;31.60;51.60
49503;DHT22;35409;48.776;9.204;2022-07-19T09:14:24;31.70;50.40
49503;DHT22;35409;48.776;9.204;2022-07-19T09:17:10;31.70;50.40
49503;DHT22;35409;48.776;9.204;2022-07-19T09:19:47;31.80;49.90
49503;DHT22;35409;48.776;9.204;2022-07-19T09:22:15;31.90;49.50
49503;DHT22;35409;48.776;9.204;2022-07-19T09:27:16;32.10;49.00
49503;DHT22;35409;48.776;9.204;2022-07-19T09:29:44;32.30;48.60
49503;DHT22;35409;48.776;9.204;2022-07-19T09:32:13;32.40;47.80
49503;DHT22;35409;48.776;9.204;2022-07-19T09:34:48;32.60;47.30
49503;DHT22;35409;48.776;9.204;2022-07-19T09:37:19;32.60;46.90
49503;DHT22;35409;48.776;9.204;2022-07-19T09:39:48;32.70;46.90
49503;DHT22;35409;48.776;9.204;2022-07-19T09:42:16;32.60;46.40
49503;DHT22;35409;48.776;9.204;2022-07-19T09:44:43;32.60;46.60
49503;DHT22;35409;48.776;9.204;2022-07-19T09:47:09;32.80;46.20
49503;DHT22;35409;48.776;9.204;2022-07-19T09:49:35;32.80;46.20
49503;DHT22;35409;48.776;9.204;2022-07-19T09:52:01;32.90;46.10
49503;DHT22;35409;48.776;9.204;2022-07-19T09:54:29;33.00;45.70
49503;DHT22;35409;48.776;9.204;2022-07-19T09:56:56;33.10;45.70
49503;DHT22;35409;48.776;9.204;2022-07-19T09:59:23;33.20;45.70
49503;DHT22;35409;48.776;9.204;2022-07-19T10:01:51;33.30;45.50
49503;DHT22;35409;48.776;9.204;2022-07-19T10:04:22;33.40;44.70
49503;DHT22;35409;48.776;9.204;2022-07-19T10:06:50;33.40;44.40
49503;DHT22;35409;48.776;9.204;2022-07-19T10:09:18;33.40;44.70
49503;DHT22;35409;48.776;9.204;2022-07-19T10:11:44;33.50;44.80
49503;DHT22;35409;48.776;9.204;2022-07-19T10:14:11;33.50;44.90
49503;DHT22;35409;48.776;9.204;2022-07-19T10:17:01;33.60;44.90
49503;DHT22;35409;48.776;9.204;2022-07-19T10:40:13;34.40;69.50
49503;DHT22;35409;48.776;9.204;2022-07-19T10:45:24;34.80;43.20
49503;DHT22;35409;48.776;9.204;2022-07-19T10:50:16;34.70;43.30
49503;DHT22;35409;48.776;9.204;2022-07-19T10:52:47;34.80;43.60
49503;DHT22;35409;48.776;9.204;2022-07-19T10:58:07;34.50;42.70
49503;DHT22;35409;48.776;9.204;2022-07-19T11:00:29;34.30;43.20
49503;DHT22;35409;48.776;9.204;2022-07-19T11:06:00;34.30;43.90
49503;DHT22;35409;48.776;9.204;2022-07-19T11:08:39;34.40;43.00
49503;DHT22;35409;48.776;9.204;2022-07-19T11:11:11;34.60;42.80
49503;DHT22;35409;48.776;9.204;2022-07-19T11:13:39;34.70;42.30
49503;DHT22;35409;48.776;9.204;2022-07-19T11:16:05;34.70;42.20
49503;DHT22;35409;48.776;9.204;2022-07-19T11:18:32;34.70;42.70
49503;DHT22;35409;48.776;9.204;2022-07-19T11:21:03;34.60;42.30
49503;DHT22;35409;48.776;9.204;2022-07-19T11:23:36;34.60;42.50
49503;DHT22;35409;48.776;9.204;2022-07-19T11:26:34;34.60;42.80
49503;DHT22;35409;48.776;9.204;2022-07-19T11:28:59;34.90;42.10
49503;DHT22;35409;48.776;9.204;2022-07-19T11:31:25;34.90;41.90
49503;DHT22;35409;48.776;9.204;2022-07-19T11:33:53;34.80;42.70
49503;DHT22;35409;48.776;9.204;2022-07-19T11:36:22;34.80;42.20
49503;DHT22;35409;48.776;9.204;2022-07-19T11:38:51;34.90;42.60
49503;DHT22;35409;48.776;9.204;2022-07-19T11:41:28;35.10;42.60
49503;DHT22;35409;48.776;9.204;2022-07-19T11:46:23;35.40;41.10
49503;DHT22;35409;48.776;9.204;2022-07-19T11:48:54;35.50;41.20
49503;DHT22;35409;48.776;9.204;2022-07-19T11:51:20;35.70;41.70
49503;DHT22;35409;48.776;9.204;2022-07-19T11:53:49;35.70;41.60
49503;DHT22;35409;48.776;9.204;2022-07-19T11:56:24;35.80;41.50
49503;DHT22;35409;48.776;9.204;2022-07-19T11:58:51;35.90;41.10
49503;DHT22;35409;48.776;9.204;2022-07-19T12:01:25;35.80;41.10
49503;DHT22;35409;48.776;9.204;2022-07-19T12:03:56;35.90;40.70
49503;DHT22;35409;48.776;9.204;2022-07-19T12:06:38;35.90;41.00
49503;DHT22;35409;48.776;9.204;2022-07-19T12:11:39;36.00;40.40
49503;DHT22;35409;48.776;9.204;2022-07-19T12:14:18;36.00;41.70
49503;DHT22;35409;48.776;9.204;2022-07-19T12:16:44;36.10;40.90
49503;DHT22;35409;48.776;9.204;2022-07-19T12:19:11;36.20;41.30
49503;DHT22;35409;48.776;9.204;2022-07-19T12:21:43;36.30;40.90
49503;DHT22;35409;48.776;9.204;2022-07-19T12:24:23;36.30;40.80
49503;DHT22;35409;48.776;9.204;2022-07-19T12:26:56;36.30;40.90
49503;DHT22;35409;48.776;9.204;2022-07-19T12:32:08;36.50;40.40
49503;DHT22;35409;48.776;9.204;2022-07-19T12:34:48;36.30;40.90
49503;DHT22;35409;48.776;9.204;2022-07-19T12:37:26;36.30;41.20
49503;DHT22;35409;48.776;9.204;2022-07-19T12:42:45;36.60;40.90
49503;DHT22;35409;48.776;9.204;2022-07-19T12:45:22;36.70;41.00
49503;DHT22;35409;48.776;9.204;2022-07-19T12:47:49;36.80;41.10
49503;DHT22;35409;48.776;9.204;2022-07-19T12:50:27;36.90;41.20
49503;DHT22;35409;48.776;9.204;2022-07-19T12:52:55;36.90;41.30
49503;DHT22;35409;48.776;9.204;2022-07-19T12:55:22;37.10;40.90
49503;DHT22;35409;48.776;9.204;2022-07-19T12:57:48;37.10;40.60
49503;DHT22;35409;48.776;9.204;2022-07-19T13:00:15;37.20;40.30
49503;DHT22;35409;48.776;9.204;2022-07-19T13:02:41;37.20;40.70
49503;DHT22;35409;48.776;9.204;2022-07-19T13:05:07;37.40;41.50
49503;DHT22;35409;48.776;9.204;2022-07-19T13:07:32;37.70;41.10
49503;DHT22;35409;48.776;9.204;2022-07-19T13:09:58;37.90;40.80
49503;DHT22;35409;48.776;9.204;2022-07-19T13:12:24;38.00;40.40
49503;DHT22;35409;48.776;9.204;2022-07-19T13:14:50;38.00;40.00
49503;DHT22;35409;48.776;9.204;2022-07-19T13:17:15;38.00;40.30
49503;DHT22;35409;48.776;9.204;2022-07-19T13:19:41;38.00;40.60
49503;DHT22;35409;48.776;9.204;2022-07-19T13:22:07;38.10;40.30
49503;DHT22;35409;48.776;9.204;2022-07-19T13:24:33;38.10;40.10
49503;DHT22;35409;48.776;9.204;2022-07-19T13:26:58;38.10;39.90
49503;DHT22;35409;48.776;9.204;2022-07-19T13:29:24;38.10;39.70
49503;DHT22;35409;48.776;9.204;2022-07-19T13:31:50;38.10;40.30
49503;DHT22;35409;48.776;9.204;2022-07-19T13:34:15;38.20;39.40
49503;DHT22;35409;48.776;9.204;2022-07-19T13:36:41;38.30;40.00
49503;DHT22;35409;48.776;9.204;2022-07-19T13:39:08;38.40;39.60
49503;DHT22;35409;48.776;9.204;2022-07-19T13:41:38;38.50;39.60
49503;DHT22;35409;48.776;9.204;2022-07-19T13:44:04;38.40;38.90
49503;DHT22;35409;48.776;9.204;2022-07-19T13:46:31;38.40;39.30
49503;DHT22;35409;48.776;9.204;2022-07-19T13:48:56;38.50;39.20
49503;DHT22;35409;48.776;9.204;2022-07-19T13:51:22;38.50;39.00
49503;DHT22;35409;48.776;9.204;2022-07-19T13:53:48;38.50;39.00
49503;DHT22;35409;48.776;9.204;2022-07-19T13:56:14;38.60;38.90
49503;DHT22;35409;48.776;9.204;2022-07-19T13:58:40;38.70;39.30
49503;DHT22;35409;48.776;9.204;2022-07-19T14:01:06;38.70;39.50
49503;DHT22;35409;48.776;9.204;2022-07-19T14:03:31;38.70;39.00
49503;DHT22;35409;48.776;9.204;2022-07-19T14:05:57;38.80;39.40
49503;DHT22;35409;48.776;9.204;2022-07-19T14:08:22;38.90;38.40
49503;DHT22;35409;48.776;9.204;2022-07-19T14:10:48;38.90;38.60
49503;DHT22;35409;48.776;9.204;2022-07-19T14:13:14;38.90;37.90
49503;DHT22;35409;48.776;9.204;2022-07-19T14:15:40;38.90;38.10
49503;DHT22;35409;48.776;9.204;2022-07-19T14:18:07;38.90;38.60
49503;DHT22;35409;48.776;9.204;2022-07-19T14:20:32;38.90;39.00
49503;DHT22;35409;48.776;9.204;2022-07-19T14:22:58;38.90;38.60
49503;DHT22;35409;48.776;9.204;2022-07-19T14:25:23;39.00;39.00
49503;DHT22;35409;48.776;9.204;2022-07-19T14:27:50;38.90;38.00
49503;DHT22;35409;48.776;9.204;2022-07-19T14:30:15;38.80;38.50
49503;DHT22;35409;48.776;9.204;2022-07-19T14:32:41;38.70;37.20
49503;DHT22;35409;48.776;9.204;2022-07-19T14:35:07;38.60;37.80
49503;DHT22;35409;48.776;9.204;2022-07-19T14:37:32;38.80;38.20
49503;DHT22;35409;48.776;9.204;2022-07-19T14:39:58;39.00;38.20
49503;DHT22;35409;48.776;9.204;2022-07-19T14:42:24;39.50;37.60
49503;DHT22;35409;48.776;9.204;2022-07-19T14:44:50;39.60;38.60
49503;DHT22;35409;48.776;9.204;2022-07-19T14:47:15;39.90;37.40
49503;DHT22;35409;48.776;9.204;2022-07-19T14:49:41;40.10;37.20
49503;DHT22;35409;48.776;9.204;2022-07-19T14:52:06;40.30;36.50
49503;DHT22;35409;48.776;9.204;2022-07-19T14:54:32;40.60;36.10
49503;DHT22;35409;48.776;9.204;2022-07-19T14:56:58;40.80;36.20
49503;DHT22;35409;48.776;9.204;2022-07-19T14:59:25;40.90;36.70
49503;DHT22;35409;48.776;9.204;2022-07-19T15:01:51;41.10;36.50
49503;DHT22;35409;48.776;9.204;2022-07-19T15:04:18;41.30;36.40
49503;DHT22;35409;48.776;9.204;2022-07-19T15:06:44;41.50;36.10
49503;DHT22;35409;48.776;9.204;2022-07-19T15:09:11;41.70;35.70
49503;DHT22;35409;48.776;9.204;2022-07-19T15:11:38;41.80;36.60
49503;DHT22;35409;48.776;9.204;2022-07-19T15:14:04;42.10;35.60
49503;DHT22;35409;48.776;9.204;2022-07-19T15:16:30;42.10;34.90
49503;DHT22;35409;48.776;9.204;2022-07-19T15:18:56;42.20;35.80
49503;DHT22;35409;48.776;9.204;2022-07-19T15:21:22;42.10;35.50
49503;DHT22;35409;48.776;9.204;2022-07-19T15:23:47;41.90;36.20
49503;DHT22;35409;48.776;9.204;2022-07-19T15:26:13;41.80;35.40
49503;DHT22;35409;48.776;9.204;2022-07-19T15:28:39;41.70;35.80
49503;DHT22;35409;48.776;9.204;2022-07-19T15:31:05;41.70;35.40
49503;DHT22;35409;48.776;9.204;2022-07-19T15:33:31;41.70;35.10
49503;DHT22;35409;48.776;9.204;2022-07-19T15:35:57;41.70;35.40
49503;DHT22;35409;48.776;9.204;2022-07-19T15:38:23;41.70;35.00
49503;DHT22;35409;48.776;9.204;2022-07-19T15:40:49;41.50;35.20
49503;DHT22;35409;48.776;9.204;2022-07-19T15:43:18;41.50;35.30
49503;DHT22;35409;48.776;9.204;2022-07-19T15:45:44;41.50;35.50
49503;DHT22;35409;48.776;9.204;2022-07-19T15:48:10;41.50;35.30
49503;DHT22;35409;48.776;9.204;2022-07-19T15:50:36;41.50;35.50
49503;DHT22;35409;48.776;9.204;2022-07-19T15:53:06;41.50;35.30
49503;DHT22;35409;48.776;9.204;2022-07-19T15:55:33;41.50;35.10
49503;DHT22;35409;48.776;9.204;2022-07-19T15:57:59;41.70;35.50
49503;DHT22;35409;48.776;9.204;2022-07-19T16:00:25;41.80;35.10
49503;DHT22;35409;48.776;9.204;2022-07-19T16:02:51;41.70;35.00
49503;DHT22;35409;48.776;9.204;2022-07-19T16:05:16;41.60;35.20
49503;DHT22;35409;48.776;9.204;2022-07-19T16:07:44;41.50;35.00
49503;DHT22;35409;48.776;9.204;2022-07-19T16:10:10;41.20;35.20
49503;DHT22;35409;48.776;9.204;2022-07-19T16:12:36;41.30;35.00